Time;durP1;ratioP1;P1;durP2;ratioP2;P2;SDS_P1;SDS_P2;PMS_P1;PMS_P2;Temp;Humidity;BMP_temperature;BMP_pressure;BME280_temperature;BME280_humidity;BME280_pressure;Samples;Min_cycle;Max_cycle;Signal;HPM_P1;HPM_P2
2022/09/12 00:01:36;;;;;;;2.75;1.67;;;;;;;16.74;69.23;99404.59;4477658;32;34691;-76
2022/09/12 00:04:05;;;;;;;2.55;1.75;;;;;;;17.02;67.74;99406.91;4461942;32;34000;-77
2022/09/12 00:06:35;;;;;;;1.98;1.50;;;;;;;17.17;66.60;99407.97;4461840;32;33549;-76
2022/09/12 00:09:06;;;;;;;2.62;1.42;;;;;;;16.94;67.58;99396.75;4462255;32;32472;-76
2022/09/12 00:11:36;;;;;;;;;;;;;;;17.09;67.22;99394.38;4475459;32;34496;-76
2022/09/12 00:14:07;;;;;;;3.83;2.00;;;;;;;16.89;67.36;99388.25;4468492;32;34421;-76
2022/09/12 00:16:36;;;;;;;;;;;;;;;16.78;68.10;99390.44;4476865;32;34061;-76
2022/09/12 00:19:05;;;;;;;5.00;1.80;;;;;;;16.87;67.76;99391.84;4467146;32;33339;-76
2022/09/12 00:21:36;;;;;;;2.58;1.62;;;;;;;16.88;67.81;99393.53;4466475;32;33670;-76
2022/09/12 00:24:05;;;;;;;2.40;1.37;;;;;;;17.01;67.27;99400.81;4467276;32;34405;-78
2022/09/12 00:26:34;;;;;;;2.33;1.40;;;;;;;17.03;67.41;99403.34;4464002;32;33135;-77
2022/09/12 00:29:06;;;;;;;;;;;;;;;17.06;66.92;99401.44;4473085;32;33169;-76
2022/09/12 00:31:35;;;;;;;2.47;1.75;;;;;;;17.33;65.69;99397.66;4471850;32;33438;-77
2022/09/12 00:34:03;;;;;;;2.75;1.67;;;;;;;16.97;66.76;99403.62;4480956;32;34597;-77
2022/09/12 00:36:33;;;;;;;1.70;1.30;;;;;;;16.92;67.30;99408.22;4465212;32;33627;-78
2022/09/12 00:39:01;;;;;;;3.05;1.52;;;;;;;16.93;67.45;99405.50;4460504;32;33116;-76
2022/09/12 00:41:32;;;;;;;3.70;1.98;;;;;;;16.98;67.23;99403.53;4460220;32;33904;-75
2022/09/12 00:44:02;;;;;;;;;;;;;;;16.88;67.72;99402.25;4476594;32;32342;-76
2022/09/12 00:46:40;;;;;;;2.15;1.48;;;;;;;17.25;66.37;99391.00;4457902;32;33083;-77
2022/09/12 00:49:14;;;;;;;1.77;1.45;;;;;;;17.12;66.94;99409.97;4460910;32;33211;-77
2022/09/12 00:51:45;;;;;;;1.95;1.30;;;;;;;17.15;66.57;99400.16;4462673;32;33332;-78
2022/09/12 00:54:14;;;;;;;;;;;;;;;17.11;66.84;99397.78;4476609;32;34432;-76
2022/09/12 00:56:44;;;;;;;2.00;1.50;;;;;;;17.01;67.05;99403.44;4469076;32;34713;-77
2022/09/12 00:59:14;;;;;;;4.40;1.85;;;;;;;16.90;67.75;99400.41;4469222;32;33023;-78
2022/09/12 01:01:47;;;;;;;3.05;1.62;;;;;;;16.93;67.56;99400.28;4472992;32;34237;-76
2022/09/12 01:04:18;;;;;;;2.50;1.65;;;;;;;16.70;68.57;99410.88;4475012;32;34697;-76
2022/09/12 01:06:48;;;;;;;2.37;1.55;;;;;;;17.04;67.35;99407.69;4461726;32;34458;-76
2022/09/12 01:09:19;;;;;;;3.45;2.00;;;;;;;16.45;69.58;99392.72;4465718;32;33053;-75
2022/09/12 01:11:48;;;;;;;3.03;1.85;;;;;;;16.84;68.32;99404.16;4461615;32;33508;-76
2022/09/12 01:14:18;;;;;;;3.03;1.87;;;;;;;16.28;70.60;99404.75;4461128;32;33653;-77
2022/09/12 01:16:49;;;;;;;3.42;2.37;;;;;;;16.46;70.30;99395.28;4459598;32;34567;-76
2022/09/12 01:19:36;;;;;;;3.58;2.10;;;;;;;16.54;70.03;99393.19;4462919;32;32714;-77
2022/09/12 01:22:15;;;;;;;3.03;1.67;;;;;;;16.72;69.20;99395.94;4474404;32;33413;-78
2022/09/12 01:24:52;;;;;;;2.85;1.85;;;;;;;16.51;69.95;99397.72;4460149;32;33712;-78
2022/09/12 01:27:35;;;;;;;3.55;1.95;;;;;;;16.68;69.34;99395.22;4465739;32;34623;-76
2022/09/12 01:30:30;;;;;;;3.33;2.35;;;;;;;16.43;70.57;99401.50;4471364;32;33137;-77
2022/09/12 01:33:10;;;;;;;3.85;2.15;;;;;;;16.32;71.44;99408.09;4461013;32;33661;-77
2022/09/12 01:35:46;;;;;;;4.10;2.17;;;;;;;16.15;72.10;99393.09;4460660;32;33667;-77
2022/09/12 01:38:22;;;;;;;3.72;2.20;;;;;;;16.36;71.21;99396.59;4467936;32;34090;-77
2022/09/12 01:40:58;;;;;;;3.22;1.90;;;;;;;16.10;72.22;99401.13;4460647;32;33363;-78
2022/09/12 01:43:33;;;;;;;4.00;2.30;;;;;;;15.99;72.84;99395.47;4466995;32;31477;-76
2022/09/12 01:46:07;;;;;;;3.90;2.58;;;;;;;15.90;73.14;99395.81;4468283;32;33928;-76
2022/09/12 01:48:39;;;;;;;3.03;1.95;;;;;;;15.84;73.51;99389.09;4466398;32;33819;-78
2022/09/12 01:51:11;;;;;;;3.65;2.30;;;;;;;15.83;73.32;99391.78;4475322;32;33210;-76
2022/09/12 01:53:42;;;;;;;4.43;2.42;;;;;;;15.83;73.70;99386.53;4462769;32;33530;-76
2022/09/12 01:56:19;;;;;;;4.05;2.08;;;;;;;16.15;72.44;99396.56;4458499;32;34149;-76
2022/09/12 01:58:53;;;;;;;4.43;2.35;;;;;;;15.84;73.76;99390.84;4462022;32;33690;-77
2022/09/12 02:01:25;;;;;;;7.43;2.75;;;;;;;16.07;72.70;99398.66;4464306;32;34130;-76
2022/09/12 02:04:02;;;;;;;4.95;2.90;;;;;;;15.96;73.16;99396.44;4467042;32;34087;-76
2022/09/12 02:06:32;;;;;;;5.00;2.85;;;;;;;16.18;72.17;99404.28;4468846;32;34552;-78
2022/09/12 02:09:05;;;;;;;4.90;2.78;;;;;;;15.91;73.43;99402.78;4459455;32;32842;-76
2022/09/12 02:11:35;;;;;;;4.50;2.80;;;;;;;15.95;72.80;99402.59;4471118;32;33793;-77
2022/09/12 02:14:07;;;;;;;5.25;3.17;;;;;;;16.06;72.81;99401.31;4467234;32;35283;-76
2022/09/12 02:16:37;;;;;;;;;;;;;;;16.00;72.92;99405.87;4464859;32;33454;-76
2022/09/12 02:19:10;;;;;;;3.92;2.37;;;;;;;16.00;72.85;99395.41;4462197;32;34039;-77
2022/09/12 02:21:40;;;;;;;5.60;3.17;;;;;;;15.64;74.38;99402.91;4472778;32;32909;-77
2022/09/12 02:24:09;;;;;;;4.70;3.15;;;;;;;15.46;75.32;99411.44;4466652;32;32999;-78
2022/09/12 02:26:46;;;;;;;5.12;2.92;;;;;;;15.62;75.00;99411.72;4465366;32;33793;-76
2022/09/12 02:29:15;;;;;;;5.07;3.08;;;;;;;15.55;75.17;99409.34;4474516;32;33348;-76
2022/09/12 02:31:47;;;;;;;5.70;3.17;;;;;;;15.87;74.03;99407.25;4461805;32;33738;-77
2022/09/12 02:34:27;;;;;;;5.20;3.05;;;;;;;16.11;73.38;99405.44;4468934;32;33818;-77
2022/09/12 02:37:03;;;;;;;5.12;2.67;;;;;;;16.18;72.63;99412.13;4464863;32;33953;-76
2022/09/12 02:39:32;;;;;;;5.93;2.70;;;;;;;16.40;71.40;99406.00;4483456;32;33467;-76
2022/09/12 02:42:03;;;;;;;4.72;2.78;;;;;;;16.06;72.74;99407.37;4481913;32;33203;-78
2022/09/12 02:44:33;;;;;;;5.07;2.70;;;;;;;16.57;70.54;99418.41;4478131;32;33512;-76
2022/09/12 02:47:07;;;;;;;4.35;2.42;;;;;;;16.48;71.09;99413.53;4463487;32;33540;-76
2022/09/12 02:49:35;;;;;;;4.90;2.95;;;;;;;16.36;72.06;99420.16;4462244;32;33741;-78
2022/09/12 02:52:04;;;;;;;4.35;2.70;;;;;;;16.61;70.26;99420.81;4476861;32;33221;-77
2022/09/12 02:54:33;;;;;;;4.62;2.42;;;;;;;16.74;69.80;99415.91;4478178;32;34471;-77
2022/09/12 02:57:02;;;;;;;5.70;2.78;;;;;;;16.62;69.78;99417.31;4477968;32;34978;-76
2022/09/12 02:59:30;;;;;;;4.72;2.42;;;;;;;16.67;70.03;99414.47;4477720;32;33532;-77
2022/09/12 03:02:10;;;;;;;6.82;2.62;;;;;;;16.72;69.37;99415.16;4478172;32;33992;-78
2022/09/12 03:05:13;;;;;;;5.12;2.87;;;;;;;16.81;68.56;99411.28;4481269;32;34393;-76
2022/09/12 03:07:59;;;;;;;4.93;2.37;;;;;;;16.45;69.82;99414.53;4461819;32;34879;-77
2022/09/12 03:10:33;;;;;;;4.37;2.40;;;;;;;16.43;70.36;99411.12;4468432;32;33896;-77
2022/09/12 03:13:08;;;;;;;4.60;2.67;;;;;;;16.66;69.58;99415.41;4447014;32;32744;-77
2022/09/12 03:15:44;;;;;;;6.80;2.60;;;;;;;16.53;69.66;99407.22;4462225;32;33766;-76
2022/09/12 03:18:23;;;;;;;4.60;2.37;;;;;;;16.60;68.93;99407.81;4465529;32;33779;-78
2022/09/12 03:20:57;;;;;;;4.72;2.90;;;;;;;16.71;68.32;99409.97;4472205;32;33555;-76
2022/09/12 03:23:30;;;;;;;5.75;3.05;;;;;;;16.58;68.83;99414.87;4476349;32;34612;-76
2022/09/12 03:26:03;;;;;;;5.80;3.35;;;;;;;16.42;69.10;99404.19;4464365;32;34313;-77
2022/09/12 03:28:33;;;;;;;4.70;2.70;;;;;;;16.56;68.27;99406.22;4467677;32;34701;-77
2022/09/12 03:31:13;;;;;;;6.07;2.80;;;;;;;16.65;67.78;99403.22;4471606;32;32896;-76
2022/09/12 03:33:45;;;;;;;7.18;2.95;;;;;;;16.57;68.04;99397.44;4466244;32;33865;-78
2022/09/12 03:36:17;;;;;;;5.30;2.80;;;;;;;16.49;68.10;99410.03;4464324;32;33906;-76
2022/09/12 03:38:48;;;;;;;4.87;2.85;;;;;;;16.20;69.24;99409.47;4474138;32;33200;-77
2022/09/12 03:41:17;;;;;;;6.37;3.15;;;;;;;15.81;70.59;99409.28;4463658;32;34330;-76
2022/09/12 03:43:46;;;;;;;4.62;2.65;;;;;;;15.77;70.84;99409.38;4472567;32;33351;-77
2022/09/12 03:46:15;;;;;;;6.30;3.30;;;;;;;15.56;71.83;99408.44;4463902;32;33415;-76
2022/09/12 03:48:45;;;;;;;5.03;3.03;;;;;;;15.72;71.10;99405.25;4477536;32;34624;-76
2022/09/12 03:51:14;;;;;;;7.60;4.00;;;;;;;15.53;71.97;99399.84;4468024;32;33417;-76
2022/09/12 03:53:43;;;;;;;7.18;3.25;;;;;;;15.76;71.11;99405.09;4461688;32;34768;-77
2022/09/12 03:56:12;;;;;;;5.90;2.92;;;;;;;15.30;72.65;99404.19;4466375;32;33617;-77
2022/09/12 03:58:41;;;;;;;7.05;3.35;;;;;;;15.59;71.97;99397.00;4461533;32;33647;-76
2022/09/12 04:01:11;;;;;;;4.95;2.78;;;;;;;15.84;70.94;99401.31;4463069;32;99157;-76
2022/09/12 04:03:40;;;;;;;5.28;3.08;;;;;;;15.77;71.05;99404.16;4468737;32;33999;-78
2022/09/12 04:06:12;;;;;;;5.32;3.28;;;;;;;15.48;71.94;99410.47;4471524;32;33579;-76
2022/09/12 04:08:42;;;;;;;6.97;3.97;;;;;;;15.29;72.64;99404.22;4467012;32;33566;-75
2022/09/12 04:11:13;;;;;;;6.55;3.55;;;;;;;15.38;72.16;99413.50;4468305;32;35703;-78
2022/09/12 04:13:44;;;;;;;4.95;3.30;;;;;;;15.15;73.02;99412.59;4463474;32;33443;-77
2022/09/12 04:16:13;;;;;;;7.07;3.53;;;;;;;15.45;71.75;99410.59;4465488;32;34052;-77
2022/09/12 04:18:42;;;;;;;6.68;3.42;;;;;;;15.29;72.20;99412.06;4467354;32;33635;-76
2022/09/12 04:21:14;;;;;;;5.22;3.25;;;;;;;15.36;72.30;99414.41;4460553;32;33915;-76
2022/09/12 04:23:46;;;;;;;6.50;3.37;;;;;;;15.38;72.17;99419.56;4460315;32;32824;-76
2022/09/12 04:26:16;;;;;;;8.45;3.15;;;;;;;15.32;72.09;99410.22;4471112;32;34677;-78
2022/09/12 04:28:46;;;;;;;6.07;3.62;;;;;;;15.31;72.07;99411.09;4467099;32;33825;-77
2022/09/12 04:31:18;;;;;;;6.05;3.30;;;;;;;15.29;71.99;99407.69;4472214;32;33705;-77
2022/09/12 04:33:48;;;;;;;5.28;3.22;;;;;;;14.95;73.44;99408.06;4467800;32;32542;-76
2022/09/12 04:36:17;;;;;;;6.53;3.40;;;;;;;14.79;74.12;99405.16;4460961;32;33361;-76
2022/09/12 04:38:47;;;;;;;6.55;3.53;;;;;;;14.96;73.51;99401.09;4466329;32;34266;-75
2022/09/12 04:41:18;;;;;;;6.62;4.62;;;;;;;15.00;73.35;99403.53;4474042;32;34211;-75
2022/09/12 04:43:47;;;;;;;4.83;3.20;;;;;;;15.03;73.38;99413.00;4459527;32;32558;-76
2022/09/12 04:46:18;;;;;;;5.45;3.03;;;;;;;14.79;74.50;99409.53;4460839;32;33300;-77
2022/09/12 04:48:47;;;;;;;;;;;;;;;14.96;73.79;99411.56;4466234;32;32232;-78
2022/09/12 04:51:21;;;;;;;6.67;3.40;;;;;;;15.07;73.50;99414.63;4471006;32;34219;-76
2022/09/12 04:53:51;;;;;;;5.93;3.35;;;;;;;15.26;72.48;99409.59;4465077;32;32912;-76
2022/09/12 04:56:21;;;;;;;7.23;3.53;;;;;;;15.40;71.78;99423.00;4467586;32;34603;-77
2022/09/12 04:58:49;;;;;;;6.07;3.50;;;;;;;15.15;72.98;99428.28;4470654;32;33984;-77
2022/09/12 05:01:19;;;;;;;5.93;4.03;;;;;;;15.14;73.04;99431.78;4464338;32;33611;-76
2022/09/12 05:03:50;;;;;;;6.45;3.65;;;;;;;15.10;73.34;99432.78;4466147;32;33187;-76
2022/09/12 05:06:21;;;;;;;8.02;4.55;;;;;;;15.09;73.19;99433.72;4467175;32;34514;-77
2022/09/12 05:08:50;;;;;;;5.55;3.10;;;;;;;14.92;73.65;99435.16;4461348;32;33737;-77
2022/09/12 05:11:21;;;;;;;6.62;3.72;;;;;;;15.05;73.31;99437.34;4471070;31;34362;-78
2022/09/12 05:13:54;;;;;;;8.10;4.40;;;;;;;15.13;73.09;99430.09;4475286;31;33727;-76
2022/09/12 05:16:25;;;;;;;7.80;4.15;;;;;;;15.21;72.84;99442.88;4480905;32;34226;-76
2022/09/12 05:18:57;;;;;;;7.57;4.03;;;;;;;15.28;72.99;99445.19;4460291;32;33645;-76
2022/09/12 05:21:27;;;;;;;6.25;3.75;;;;;;;15.18;73.39;99443.84;4460786;32;34420;-78
2022/09/12 05:23:58;;;;;;;10.98;4.75;;;;;;;15.41;72.30;99449.97;4471357;32;33116;-77
2022/09/12 05:26:27;;;;;;;8.13;4.32;;;;;;;15.32;72.78;99459.87;4478240;32;33308;-78
2022/09/12 05:28:56;;;;;;;8.02;4.05;;;;;;;15.28;72.66;99457.44;4473930;32;33294;-76
2022/09/12 05:31:26;;;;;;;7.50;3.62;;;;;;;15.55;71.70;99463.41;4467390;32;34297;-76
2022/09/12 05:33:55;;;;;;;7.35;3.97;;;;;;;15.32;72.93;99456.41;4469488;32;33220;-77
2022/09/12 05:36:28;;;;;;;8.02;4.55;;;;;;;15.34;73.17;99457.19;4470414;32;33493;-76
2022/09/12 05:38:57;;;;;;;5.85;3.35;;;;;;;15.31;73.37;99454.69;4474298;32;34056;-76
2022/09/12 05:41:28;;;;;;;6.35;3.90;;;;;;;15.35;72.89;99461.53;4461218;32;34637;-77
2022/09/12 05:43:58;;;;;;;6.78;3.95;;;;;;;15.48;72.78;99469.75;4447100;32;31676;-76
2022/09/12 05:46:28;;;;;;;8.32;4.22;;;;;;;15.66;71.81;99458.63;4461694;32;33323;-76
2022/09/12 05:48:57;;;;;;;7.37;4.35;;;;;;;15.69;71.89;99465.50;4466273;32;34105;-75
2022/09/12 05:51:31;;;;;;;8.13;4.10;;;;;;;15.49;72.52;99468.88;4462344;32;34583;-77
2022/09/12 05:54:02;;;;;;;8.30;4.47;;;;;;;15.56;72.23;99465.13;4460916;32;32927;-78
2022/09/12 05:56:33;;;;;;;10.65;3.92;;;;;;;15.64;72.39;99462.22;4460570;32;33235;-77
2022/09/12 05:59:03;;;;;;;7.95;3.80;;;;;;;15.86;71.27;99475.34;4460498;32;33812;-77
2022/09/12 06:01:33;;;;;;;8.40;4.05;;;;;;;15.84;71.31;99472.78;4471069;32;34211;-77
2022/09/12 06:04:05;;;;;;;7.25;3.90;;;;;;;15.86;70.86;99481.44;4475541;32;32456;-75
2022/09/12 06:06:38;;;;;;;10.13;5.18;;;;;;;15.96;70.75;99477.53;4470165;32;34105;-76
2022/09/12 06:09:07;;;;;;;6.43;3.97;;;;;;;16.10;70.11;99474.41;4460344;32;33615;-77
2022/09/12 06:11:40;;;;;;;7.57;4.03;;;;;;;15.82;71.22;99473.75;4465861;32;32879;-76
2022/09/12 06:14:10;;;;;;;7.07;3.78;;;;;;;15.78;70.96;99468.66;4467354;32;33079;-76
2022/09/12 06:16:39;;;;;;;7.30;4.05;;;;;;;15.94;70.41;99474.13;4463264;32;33619;-76
2022/09/12 06:19:12;;;;;;;7.25;4.10;;;;;;;15.89;70.84;99477.84;4468450;32;35200;-75
2022/09/12 06:21:43;;;;;;;9.55;4.47;;;;;;;15.94;70.66;99483.75;4476282;32;33999;-76
2022/09/12 06:24:12;;;;;;;6.10;3.50;;;;;;;15.92;70.96;99472.47;4474382;32;33182;-78
2022/09/12 06:26:40;;;;;;;8.00;4.15;;;;;;;16.19;69.80;99492.38;4469733;32;34539;-75
2022/09/12 06:29:12;;;;;;;8.95;3.92;;;;;;;16.34;69.57;99490.91;4459240;32;34802;-77
2022/09/12 06:31:42;;;;;;;7.78;3.78;;;;;;;16.33;69.35;99497.06;4459556;32;33469;-78
2022/09/12 06:34:13;;;;;;;7.32;3.87;;;;;;;16.12;69.70;99490.91;4478935;32;33524;-77
2022/09/12 06:36:44;;;;;;;9.27;4.78;;;;;;;16.40;69.41;99493.25;4462270;32;33510;-78
2022/09/12 06:39:15;;;;;;;8.45;4.65;;;;;;;16.48;68.65;99492.97;4466886;32;33779;-77
2022/09/12 06:41:44;;;;;;;6.20;3.80;;;;;;;16.47;69.49;99485.16;4463718;32;34438;-77
2022/09/12 06:44:14;;;;;;;6.43;3.30;;;;;;;16.67;68.65;99489.56;4459468;32;33173;-77
2022/09/12 06:46:44;;;;;;;8.00;3.92;;;;;;;16.55;69.00;99483.06;4470772;32;33370;-77
2022/09/12 06:49:13;;;;;;;8.80;3.35;;;;;;;16.67;67.81;99484.34;4475585;32;34673;-76
2022/09/12 06:51:43;;;;;;;5.50;2.97;;;;;;;16.67;67.93;99490.41;4472036;32;33399;-76
2022/09/12 06:54:13;;;;;;;6.57;3.47;;;;;;;16.88;67.34;99490.50;4466186;32;33654;-78
2022/09/12 06:56:42;;;;;;;5.20;3.05;;;;;;;16.87;67.94;99486.19;4475292;32;32890;-76
2022/09/12 06:59:10;;;;;;;6.93;3.37;;;;;;;16.93;66.63;99484.13;4458896;32;33590;-75
2022/09/12 07:01:41;;;;;;;9.57;4.07;;;;;;;16.82;67.52;99481.97;4463116;32;34235;-78
2022/09/12 07:04:11;;;;;;;7.30;3.62;;;;;;;17.01;67.10;99471.56;4451383;32;32712;-77
2022/09/12 07:06:41;;;;;;;5.80;3.15;;;;;;;17.03;66.73;99474.97;4465136;32;33441;-78
2022/09/12 07:09:15;;;;;;;4.85;2.53;;;;;;;17.33;65.78;99476.31;4474261;32;33724;-77
2022/09/12 07:11:44;;;;;;;6.20;2.78;;;;;;;17.31;65.46;99479.00;4458974;32;33514;-76
2022/09/12 07:14:14;;;;;;;4.47;2.62;;;;;;;17.37;64.99;99477.88;4458808;32;33370;-76
2022/09/12 07:16:43;;;;;;;5.72;2.97;;;;;;;17.07;65.86;99483.53;4458877;32;34503;-77
2022/09/12 07:19:12;;;;;;;5.90;3.05;;;;;;;17.60;64.15;99485.56;4466618;32;34253;-78
2022/09/12 07:21:41;;;;;;;7.20;2.67;;;;;;;17.84;63.27;99490.66;4460972;32;34243;-77
2022/09/12 07:24:10;;;;;;;5.70;3.15;;;;;;;17.45;64.13;99497.59;4460805;32;33871;-76
2022/09/12 07:26:41;;;;;;;5.57;2.92;;;;;;;17.46;64.61;99501.91;4460895;32;34285;-78
2022/09/12 07:29:14;;;;;;;6.03;3.12;;;;;;;17.46;64.49;99506.31;4460684;32;33687;-77
2022/09/12 07:32:04;;;;;;;3.58;2.40;;;;;;;17.72;63.88;99497.28;4467443;32;33379;-76
2022/09/12 07:34:33;;;;;;;4.25;2.60;;;;;;;17.60;63.05;99505.69;4466018;32;33189;-77
2022/09/12 07:37:02;;;;;;;4.90;2.40;;;;;;;17.63;62.92;99500.31;4467994;32;33292;-77
2022/09/12 07:39:31;;;;;;;4.00;2.33;;;;;;;17.75;62.22;99504.16;4473271;32;33721;-77
2022/09/12 07:42:01;;;;;;;4.37;2.17;;;;;;;18.00;62.10;99506.50;4476381;32;33442;-77
2022/09/12 07:44:30;;;;;;;4.12;2.20;;;;;;;18.38;61.02;99514.38;4474648;32;33918;-77
2022/09/12 07:46:58;;;;;;;4.05;2.17;;;;;;;18.38;60.58;99506.47;4470234;32;33747;-78
2022/09/12 07:49:28;;;;;;;5.70;3.10;;;;;;;18.58;59.44;99508.13;4465480;32;34664;-76
2022/09/12 07:51:58;;;;;;;5.57;2.42;;;;;;;18.55;59.40;99512.59;4462076;32;33579;-77
2022/09/12 07:54:27;;;;;;;4.53;2.35;;;;;;;18.48;59.16;99507.72;4482703;32;33715;-76
2022/09/12 07:56:56;;;;;;;5.32;2.50;;;;;;;18.24;59.67;99507.13;4467302;32;33558;-76
2022/09/12 07:59:26;;;;;;;4.82;2.62;;;;;;;18.56;58.99;99502.97;4461974;32;33584;-76
2022/09/12 08:02:15;;;;;;;4.50;2.37;;;;;;;18.53;58.87;99508.34;4462934;32;33626;-79
2022/09/12 08:04:47;;;;;;;4.55;2.15;;;;;;;18.52;59.47;99502.25;4465910;32;34246;-77
2022/09/12 08:07:17;;;;;;;3.55;1.80;;;;;;;18.68;58.49;99507.63;4482319;32;33489;-76
2022/09/12 08:09:46;;;;;;;3.07;1.70;;;;;;;18.80;57.59;99506.19;4475459;32;34837;-77
2022/09/12 08:12:16;;;;;;;4.03;2.20;;;;;;;18.74;57.64;99504.69;4471553;32;33732;-77
2022/09/12 08:14:47;;;;;;;4.83;2.10;;;;;;;18.89;57.43;99500.44;4460932;32;33342;-76
2022/09/12 08:17:16;;;;;;;3.22;1.80;;;;;;;18.96;56.98;99506.25;4475150;32;33644;-77
2022/09/12 08:19:44;;;;;;;2.58;1.50;;;;;;;18.97;57.07;99502.72;4468979;32;33903;-77
2022/09/12 08:22:13;;;;;;;3.05;1.58;;;;;;;19.21;56.21;99511.13;4460140;32;33453;-78
2022/09/12 08:24:42;;;;;;;4.12;2.03;;;;;;;19.38;55.88;99505.00;4460565;32;32975;-79
2022/09/12 08:27:11;;;;;;;3.83;1.92;;;;;;;19.27;55.03;99502.91;4460054;32;33898;-76
2022/09/12 08:29:39;;;;;;;4.65;2.10;;;;;;;19.22;55.84;99502.31;4465773;32;32479;-78
2022/09/12 08:32:10;;;;;;;4.00;1.90;;;;;;;19.28;55.98;99512.53;4463015;32;32865;-77
2022/09/12 08:34:38;;;;;;;4.97;1.87;;;;;;;19.48;55.58;99516.72;4461156;32;32229;-77
2022/09/12 08:37:07;;;;;;;2.25;1.45;;;;;;;19.60;55.34;99507.34;4462754;32;34248;-77
2022/09/12 08:39:36;;;;;;;2.87;1.75;;;;;;;19.69;55.73;99512.16;4473344;32;34675;-76
2022/09/12 08:42:06;;;;;;;5.07;2.30;;;;;;;19.54;55.88;99511.13;4468259;32;33859;-77
2022/09/12 08:44:58;;;;;;;3.05;1.60;;;;;;;19.88;53.86;99504.09;4468963;32;34139;-77
2022/09/12 08:47:31;;;;;;;4.15;1.83;;;;;;;19.99;54.16;99512.25;4466380;32;34770;-77
2022/09/12 08:50:04;;;;;;;4.70;2.22;;;;;;;20.04;54.15;99506.75;4466366;32;34307;-79
2022/09/12 08:52:43;;;;;;;2.25;1.35;;;;;;;20.31;52.84;99504.34;4465285;32;33976;-77
2022/09/12 08:55:24;;;;;;;2.15;1.25;;;;;;;20.41;51.65;99507.31;4466626;32;33974;-77
2022/09/12 08:57:53;;;;;;;2.17;1.45;;;;;;;20.30;51.62;99491.28;4460693;32;34036;-76
2022/09/12 09:00:22;;;;;;;2.12;1.35;;;;;;;20.10;49.99;99498.47;4460807;32;34629;-77
2022/09/12 09:03:07;;;;;;;2.62;1.45;;;;;;;20.17;50.53;99497.19;4474737;32;33458;-79
2022/09/12 09:05:48;;;;;;;6.28;2.00;;;;;;;20.25;51.84;99495.00;4476982;32;33403;-77
2022/09/12 09:08:45;;;;;;;4.00;1.77;;;;;;;20.59;49.46;99500.19;4482379;32;34654;-78
2022/09/12 09:11:25;;;;;;;2.45;1.37;;;;;;;20.50;50.11;99488.34;4482461;32;34456;-78
2022/09/12 09:16:52;;;;;;;1.75;1.02;;;;;;;20.70;49.05;99489.84;4461430;32;33938;-78
2022/09/12 09:19:25;;;;;;;2.80;1.70;;;;;;;20.76;48.63;99483.37;4460832;32;35934;-77
2022/09/12 09:21:58;;;;;;;4.72;1.27;;;;;;;20.82;49.89;99485.66;4477519;32;33639;-76
2022/09/12 09:24:33;;;;;;;2.35;1.20;;;;;;;20.99;47.65;99490.78;4481722;32;34613;-78
2022/09/12 09:27:05;;;;;;;1.92;1.17;;;;;;;20.71;48.57;99486.28;4476477;32;32915;-76
2022/09/12 09:29:55;;;;;;;2.78;1.35;;;;;;;20.45;48.05;99493.88;4476038;32;33889;-78
2022/09/12 09:32:27;;;;;;;1.95;0.90;;;;;;;20.53;48.04;99482.87;4473916;32;33848;-77
2022/09/12 09:34:57;;;;;;;2.30;1.33;;;;;;;20.70;48.46;99489.00;4460257;32;33531;-77
2022/09/12 09:37:32;;;;;;;2.67;1.70;;;;;;;21.12;47.76;99490.03;4474278;32;32601;-77
2022/09/12 09:40:08;;;;;;;1.58;1.00;;;;;;;20.96;48.95;99487.47;4477063;32;33401;-77
2022/09/12 09:42:42;;;;;;;3.50;1.48;;;;;;;21.26;48.90;99487.41;4459806;32;33578;-76
2022/09/12 09:45:16;;;;;;;3.00;1.20;;;;;;;21.42;47.74;99482.09;4462127;32;33496;-77
2022/09/12 09:47:46;;;;;;;2.22;1.20;;;;;;;21.30;48.27;99491.56;4469301;32;33575;-76
2022/09/12 09:50:18;;;;;;;3.42;1.58;;;;;;;21.09;47.76;99499.84;4465111;32;33918;-76
2022/09/12 09:52:47;;;;;;;2.15;1.20;;;;;;;21.31;47.46;99493.25;4460615;32;34586;-76
2022/09/12 09:55:18;;;;;;;1.60;0.93;;;;;;;20.99;48.52;99492.56;4475079;32;33385;-78
2022/09/12 09:57:47;;;;;;;3.28;1.00;;;;;;;20.78;49.46;99490.28;4464609;32;32942;-77
2022/09/12 10:00:30;;;;;;;2.35;1.40;;;;;;;20.98;48.66;99498.78;4459981;32;34255;-76
2022/09/12 10:03:22;;;;;;;3.28;1.20;;;;;;;20.83;48.49;99492.63;4465975;32;33529;-78
2022/09/12 10:05:53;;;;;;;1.90;1.10;;;;;;;20.92;48.25;99483.31;4476959;32;33552;-77
2022/09/12 10:08:25;;;;;;;2.17;1.08;;;;;;;21.35;48.38;99486.03;4462785;32;33179;-77
2022/09/12 10:11:02;;;;;;;1.55;1.10;;;;;;;21.37;46.98;99481.50;4464867;32;34580;-76
2022/09/12 10:13:39;;;;;;;2.83;1.52;;;;;;;21.36;47.88;99475.37;4463417;32;33908;-76
2022/09/12 10:16:19;;;;;;;2.45;1.37;;;;;;;21.43;47.51;99473.22;4471125;32;33537;-77
2022/09/12 10:18:49;;;;;;;2.17;1.37;;;;;;;21.15;48.16;99481.97;4471224;32;33776;-77
2022/09/12 10:21:26;;;;;;;3.63;1.93;;;;;;;21.39;47.85;99483.13;4469237;32;34046;-77
2022/09/12 10:24:04;;;;;;;1.87;1.08;;;;;;;21.34;47.68;99484.34;4470004;32;34501;-79
2022/09/12 10:26:34;;;;;;;3.47;1.40;;;;;;;21.21;47.58;99485.06;4462470;32;34632;-76
2022/09/12 10:29:15;;;;;;;2.25;1.40;;;;;;;21.24;48.44;99482.25;4463375;32;33571;-77
2022/09/12 10:31:48;;;;;;;2.75;1.20;;;;;;;21.23;48.53;99479.69;4479455;32;33491;-77
2022/09/12 10:34:24;;;;;;;1.98;1.10;;;;;;;21.27;48.44;99474.16;4474656;32;34415;-79
2022/09/12 10:36:59;;;;;;;2.00;1.10;;;;;;;21.44;47.85;99470.50;4472484;32;33511;-76
2022/09/12 10:39:29;;;;;;;2.37;1.10;;;;;;;21.50;48.05;99475.41;4475983;32;33974;-77
2022/09/12 10:41:58;;;;;;;2.33;1.33;;;;;;;21.81;47.70;99473.47;4460786;32;34196;-77
2022/09/12 10:44:29;;;;;;;2.53;1.33;;;;;;;21.52;47.67;99477.94;4471106;32;34306;-77
2022/09/12 10:46:59;;;;;;;3.55;1.48;;;;;;;21.02;49.28;99480.06;4469234;32;33681;-77
2022/09/12 10:49:30;;;;;;;6.47;1.95;;;;;;;20.98;50.25;99483.81;4459346;32;33527;-77
2022/09/12 10:52:17;;;;;;;2.42;1.35;;;;;;;21.21;50.28;99474.50;4474000;32;33753;-78
2022/09/12 10:54:45;;;;;;;2.80;1.35;;;;;;;21.01;49.83;99477.50;4463732;32;34505;-79
2022/09/12 10:57:40;;;;;;;4.05;1.40;;;;;;;21.13;49.90;99476.75;4467023;32;33427;-76
2022/09/12 11:00:14;;;;;;;2.90;1.37;;;;;;;21.22;50.15;99475.37;4476878;32;34043;-77
2022/09/12 11:02:58;;;;;;;2.00;1.00;;;;;;;21.07;50.16;99471.88;4466407;32;35039;-77
2022/09/12 11:05:46;;;;;;;2.97;1.62;;;;;;;21.00;50.42;99471.38;4461583;32;34165;-78
2022/09/12 11:08:29;;;;;;;2.12;1.27;;;;;;;21.41;49.23;99470.69;4460695;32;34558;-76
2022/09/12 11:11:03;;;;;;;2.08;1.15;;;;;;;21.37;49.73;99470.94;4470390;32;33408;-76
2022/09/12 11:13:47;;;;;;;2.90;1.40;;;;;;;21.51;49.05;99473.63;4466633;32;33975;-76
2022/09/12 11:16:22;;;;;;;3.08;1.70;;;;;;;21.32;49.47;99465.94;4468911;32;32822;-76
2022/09/12 11:19:06;;;;;;;2.28;1.17;;;;;;;21.15;49.80;99471.41;4460148;32;34347;-77
2022/09/12 11:21:46;;;;;;;2.90;1.73;;;;;;;21.03;50.44;99471.19;4460430;32;33247;-78
2022/09/12 11:24:23;;;;;;;3.10;1.62;;;;;;;20.99;50.49;99468.84;4469439;32;34382;-77
2022/09/12 11:27:01;;;;;;;3.78;1.67;;;;;;;21.09;50.98;99473.47;4465989;32;33750;-76
2022/09/12 11:29:45;;;;;;;3.87;1.40;;;;;;;20.85;51.21;99480.19;4465885;32;34667;-76
2022/09/12 11:32:48;;;;;;;3.83;2.65;;;;;;;20.69;51.49;99472.34;4460262;32;33133;-77
2022/09/12 11:35:23;;;;;;;3.22;1.55;;;;;;;20.58;50.73;99474.75;4461917;32;32585;-76
2022/09/12 11:38:23;;;;;;;2.80;1.65;;;;;;;20.56;49.93;99469.59;4460374;32;33624;-76
2022/09/12 11:40:55;;;;;;;3.22;1.42;;;;;;;20.58;49.97;99474.75;4397330;32;34376;-76
2022/09/12 11:43:31;;;;;;;4.93;2.00;;;;;;;20.36;50.50;99465.41;4396319;32;33179;-77
2022/09/12 11:46:06;;;;;;;3.17;1.50;;;;;;;20.22;51.61;99467.97;4402402;32;32560;-76
2022/09/12 11:48:40;;;;;;;2.97;1.48;;;;;;;20.59;51.08;99469.41;4397494;32;34492;-77
2022/09/12 11:51:18;;;;;;;2.42;1.52;;;;;;;20.44;51.87;99465.84;4408358;32;33528;-78
2022/09/12 11:53:57;;;;;;;3.17;1.83;;;;;;;20.45;52.52;99470.16;4406111;32;33706;-78
2022/09/12 11:56:27;;;;;;;2.92;1.67;;;;;;;20.62;51.96;99465.75;4407937;32;34534;-77
2022/09/12 11:59:01;;;;;;;2.72;1.50;;;;;;;20.60;52.14;99471.09;4410765;32;34752;-79
2022/09/12 12:01:33;;;;;;;3.55;1.62;;;;;;;20.64;52.73;99472.63;4392568;32;34240;-76
2022/09/12 12:04:12;;;;;;;1.85;1.30;;;;;;;20.82;51.61;99472.47;4401941;32;33939;-78